Time;durP1;ratioP1;P1;durP2;ratioP2;P2;SDS_P1;SDS_P2;PMS_P1;PMS_P2;Temp;Humidity;BMP_temperature;BMP_pressure;BME280_temperature;BME280_humidity;BME280_pressure;Samples;Min_cycle;Max_cycle;Signal;HPM_P1;HPM_P2
2022/07/01 00:00:00;;;;;;;0.20;0.20;;;;;;;21.07;53.89;100256.72;5145760;27;20019;-73
2022/07/01 00:02:25;;;;;;;0.10;0.10;;;;;;;21.05;53.77;100246.25;5127013;27;20041;-73
2022/07/01 00:04:51;;;;;;;0.20;0.20;;;;;;;21.10;53.99;100255.72;5145534;27;20050;-74
2022/07/01 00:07:16;;;;;;;0.15;0.15;;;;;;;21.11;54.00;100260.06;5145424;27;20023;-73
2022/07/01 00:09:42;;;;;;;0.10;0.10;;;;;;;21.05;54.07;100248.06;5145249;27;20039;-73
2022/07/01 00:12:07;;;;;;;0.10;0.10;;;;;;;21.00;53.75;100239.56;5145403;27;20034;-73
2022/07/01 00:14:33;;;;;;;0.10;0.10;;;;;;;21.05;53.74;100250.72;5145613;27;20043;-73
2022/07/01 00:16:58;;;;;;;0.20;0.20;;;;;;;21.04;53.61;100256.91;5145423;27;20019;-73
2022/07/01 00:19:24;;;;;;;0.10;0.10;;;;;;;21.02;53.50;100257.00;5145615;27;20019;-73
2022/07/01 00:21:51;;;;;;;0.30;0.30;;;;;;;21.03;53.39;100250.78;5145055;27;20046;-73
2022/07/01 00:24:16;;;;;;;0.10;0.10;;;;;;;21.01;53.93;100255.28;5144984;27;20050;-73
2022/07/01 00:26:42;;;;;;;0.20;0.20;;;;;;;20.98;53.74;100250.19;5145323;27;20023;-73
2022/07/01 00:29:07;;;;;;;0.20;0.20;;;;;;;20.99;53.94;100251.06;5145231;27;20057;-73
2022/07/01 00:31:32;;;;;;;0.10;0.10;;;;;;;20.98;54.16;100241.41;5145106;27;20076;-73
2022/07/01 00:33:58;;;;;;;0.20;0.20;;;;;;;20.92;54.10;100229.41;5144898;27;20053;-73
2022/07/01 00:36:23;;;;;;;0.10;0.10;;;;;;;20.97;54.07;100240.59;5145204;27;20038;-73
2022/07/01 00:38:48;;;;;;;0.20;0.20;;;;;;;20.97;53.93;100240.59;5144792;27;20027;-73
2022/07/01 00:41:14;;;;;;;0.40;0.40;;;;;;;20.97;54.45;100245.84;5144882;27;20064;-73
2022/07/01 00:43:40;;;;;;;0.10;0.10;;;;;;;20.96;55.55;100249.41;5144797;27;20015;-73
2022/07/01 00:46:05;;;;;;;0.20;0.20;;;;;;;20.89;55.76;100237.47;5145086;27;20022;-73
2022/07/01 00:48:36;;;;;;;0.17;0.17;;;;;;;20.83;55.70;100233.38;5145065;27;20023;-73
2022/07/01 00:51:02;;;;;;;1.40;1.30;;;;;;;20.78;56.06;100233.63;5144382;27;20110;-73
2022/07/01 00:53:29;;;;;;;0.20;0.20;;;;;;;20.74;56.55;100234.72;5144829;27;20045;-73
2022/07/01 00:55:55;;;;;;;0.20;0.20;;;;;;;20.72;56.63;100231.31;5144795;27;20023;-74
2022/07/01 00:58:20;;;;;;;0.20;0.20;;;;;;;20.71;56.53;100231.41;5144600;27;20030;-73
2022/07/01 01:00:45;;;;;;;0.20;0.20;;;;;;;20.72;56.57;100233.94;5144609;27;20022;-73
2022/07/01 01:03:11;;;;;;;0.20;0.20;;;;;;;20.72;56.81;100228.69;5144466;27;20134;-73
2022/07/01 01:05:38;;;;;;;0.20;0.20;;;;;;;20.71;56.62;100227.00;5144767;28;20027;-73
2022/07/01 01:08:04;;;;;;;0.20;0.20;;;;;;;20.71;56.65;100227.00;5144588;28;20019;-73
2022/07/01 01:10:30;;;;;;;0.10;0.10;;;;;;;20.69;56.36;100218.28;5144542;28;20036;-73
2022/07/01 01:12:57;;;;;;;0.20;0.20;;;;;;;20.71;56.50;100218.22;5144290;28;20027;-73
2022/07/01 01:15:23;;;;;;;0.20;0.20;;;;;;;20.73;56.55;100217.22;5144625;28;20023;-73
2022/07/01 01:17:49;;;;;;;0.30;0.30;;;;;;;20.74;56.60;100218.03;5144423;28;20088;-73
2022/07/01 01:20:19;;;;;;;0.20;0.20;;;;;;;20.73;56.38;100217.22;5144507;28;20031;-73
2022/07/01 01:22:46;;;;;;;0.52;0.52;;;;;;;20.74;56.27;100224.19;5144372;28;20020;-73
2022/07/01 01:25:11;;;;;;;0.10;0.10;;;;;;;20.70;55.92;100216.53;5143932;28;20051;-74
2022/07/01 01:27:37;;;;;;;0.20;0.20;;;;;;;20.70;56.00;100221.78;5144268;28;20027;-73
2022/07/01 01:30:07;;;;;;;0.10;0.10;;;;;;;20.60;55.78;100221.44;5144443;28;20023;-74
2022/07/01 01:32:32;;;;;;;0.22;0.22;;;;;;;20.63;55.54;100224.75;5144382;28;20044;-73
2022/07/01 01:34:57;;;;;;;0.20;0.20;;;;;;;20.62;55.86;100225.72;5144091;28;20043;-73
2022/07/01 01:37:23;;;;;;;0.25;0.25;;;;;;;20.61;56.76;100225.75;5144180;28;20250;-74
2022/07/01 01:39:48;;;;;;;0.20;0.20;;;;;;;20.57;58.65;100222.47;5144085;28;20532;-74
2022/07/01 01:42:14;;;;;;;0.10;0.10;;;;;;;20.50;59.01;100215.78;5144070;28;20020;-74
2022/07/01 01:44:39;;;;;;;0.88;0.73;;;;;;;20.47;58.81;100214.19;5144428;28;20023;-73
2022/07/01 01:47:04;;;;;;;0.73;0.73;;;;;;;20.52;58.57;100227.13;5144260;28;20058;-73
2022/07/01 01:49:30;;;;;;;0.10;0.10;;;;;;;20.50;58.20;100224.56;5144120;28;20024;-73
2022/07/01 01:52:01;;;;;;;0.20;0.20;;;;;;;20.53;58.83;100221.75;5144223;28;20053;-74
2022/07/01 01:54:27;;;;;;;0.20;0.20;;;;;;;20.49;59.15;100219.38;5144154;28;20045;-73
2022/07/01 01:56:53;;;;;;;0.40;0.40;;;;;;;20.52;60.68;100227.97;5144210;28;20062;-73
2022/07/01 01:59:18;;;;;;;0.17;0.17;;;;;;;20.45;60.44;100218.69;5144026;28;20094;-73
2022/07/01 02:01:44;;;;;;;2.08;1.95;;;;;;;20.41;60.79;100217.16;5143901;27;20030;-74
2022/07/01 02:04:10;;;;;;;0.20;0.20;;;;;;;20.38;61.33;100212.91;5147408;27;20023;-74
2022/07/01 02:06:36;;;;;;;0.10;0.10;;;;;;;20.38;61.19;100220.81;5147889;27;20019;-74
2022/07/01 02:09:02;;;;;;;0.30;0.28;;;;;;;20.38;61.72;100219.94;5147821;27;20072;-72
2022/07/01 02:11:27;;;;;;;0.20;0.20;;;;;;;20.28;62.55;100212.53;5147880;27;20023;-73
2022/07/01 02:13:52;;;;;;;0.20;0.20;;;;;;;20.28;63.02;100214.31;5147950;27;20071;-74
2022/07/01 02:16:18;;;;;;;0.40;0.40;;;;;;;20.23;64.08;100219.81;5147504;27;20340;-74
2022/07/01 02:18:43;;;;;;;0.95;0.70;;;;;;;20.17;64.58;100214.88;5147609;27;20019;-74
2022/07/01 02:21:08;;;;;;;0.10;0.10;;;;;;;20.16;64.78;100223.72;5147732;27;20023;-74
2022/07/01 02:23:34;;;;;;;0.30;0.30;;;;;;;20.15;65.33;100227.25;5147351;27;20047;-75
2022/07/01 02:25:59;;;;;;;0.15;0.15;;;;;;;20.11;65.74;100216.03;5147399;27;20435;-74
2022/07/01 02:28:24;;;;;;;0.20;0.20;;;;;;;20.09;65.84;100219.69;5147260;27;20015;-74
2022/07/01 02:30:50;;;;;;;0.10;0.10;;;;;;;20.06;66.51;100228.59;5147188;27;20054;-74
2022/07/01 02:33:15;;;;;;;0.20;0.20;;;;;;;19.98;66.55;100233.38;5147332;27;20027;-73
2022/07/01 02:35:41;;;;;;;0.63;0.63;;;;;;;19.90;66.99;100225.88;5147228;27;20023;-73
2022/07/01 02:38:07;;;;;;;0.20;0.20;;;;;;;19.90;66.77;100231.13;5147019;27;20039;-73
2022/07/01 02:40:34;;;;;;;0.32;0.32;;;;;;;19.87;66.90;100229.50;5128303;27;20026;-74
2022/07/01 02:43:00;;;;;;;0.50;0.50;;;;;;;19.86;67.34;100224.28;5146988;27;20019;-73
2022/07/01 02:45:25;;;;;;;0.30;0.30;;;;;;;19.81;67.06;100212.22;5147431;27;20030;-73
2022/07/01 02:47:51;;;;;;;0.20;0.20;;;;;;;19.79;67.44;100214.06;5128204;27;20033;-72
2022/07/01 02:50:18;;;;;;;0.20;0.20;;;;;;;19.80;67.69;100222.84;5146894;27;20019;-72
2022/07/01 02:52:43;;;;;;;0.93;0.80;;;;;;;19.79;68.10;100218.50;5146648;27;20019;-70
2022/07/01 02:55:11;;;;;;;37.05;2.45;;;;;;;19.74;68.17;100218.75;5146384;27;20034;-71
2022/07/01 02:57:38;;;;;;;0.20;0.20;;;;;;;19.68;68.44;100224.31;5146727;27;20122;-71
2022/07/01 03:00:08;;;;;;;0.20;0.20;;;;;;;19.67;68.42;100218.19;5146642;27;20024;-71
2022/07/01 03:02:34;;;;;;;0.30;0.30;;;;;;;19.62;68.69;100203.53;5146544;27;20057;-72
2022/07/01 03:05:00;;;;;;;0.50;0.50;;;;;;;19.66;68.54;100215.63;5146536;27;20019;-71
2022/07/01 03:07:25;;;;;;;0.25;0.25;;;;;;;19.59;68.94;100208.94;5146297;27;20040;-72
2022/07/01 03:09:52;;;;;;;0.13;0.13;;;;;;;19.63;68.89;100210.53;5146484;27;20023;-71
2022/07/01 03:12:24;;;;;;;0.20;0.20;;;;;;;19.63;68.97;100200.00;5146199;27;20086;-71
2022/07/01 03:15:00;;;;;;;0.15;0.15;;;;;;;19.64;68.87;100204.31;5146220;27;20416;-72
2022/07/01 03:17:28;;;;;;;0.10;0.10;;;;;;;19.62;68.82;100209.66;5146165;27;20051;-72
2022/07/01 03:19:54;;;;;;;0.35;0.35;;;;;;;19.60;68.90;100205.41;5146488;27;20406;-71
2022/07/01 03:22:21;;;;;;;0.40;0.40;;;;;;;19.67;69.11;100214.69;5146021;27;20046;-72
2022/07/01 03:24:47;;;;;;;0.20;0.20;;;;;;;19.61;69.11;100213.22;5146054;27;20051;-72
2022/07/01 03:27:13;;;;;;;0.20;0.20;;;;;;;19.65;68.75;100229.75;5145765;27;20015;-72
2022/07/01 03:29:38;;;;;;;0.20;0.20;;;;;;;19.61;69.11;100222.91;5145539;27;20052;-72
2022/07/01 03:32:04;;;;;;;0.20;0.20;;;;;;;19.81;69.35;100228.03;5146286;27;20023;-72
2022/07/01 03:34:29;;;;;;;0.20;0.20;;;;;;;19.90;68.70;100223.22;5127384;27;20046;-72
2022/07/01 03:36:55;;;;;;;0.20;0.20;;;;;;;19.85;68.09;100225.25;5145998;27;20026;-72
2022/07/01 03:39:20;;;;;;;0.20;0.20;;;;;;;19.70;68.53;100225.06;5145815;27;20526;-72
2022/07/01 03:41:46;;;;;;;0.10;0.10;;;;;;;19.65;68.34;100232.38;5146135;27;20027;-71
2022/07/01 03:44:11;;;;;;;0.20;0.20;;;;;;;19.49;68.75;100227.00;5146060;27;20098;-72
2022/07/01 03:46:37;;;;;;;0.20;0.20;;;;;;;19.50;69.25;100239.22;5145749;27;20027;-74
2022/07/01 03:49:03;;;;;;;0.20;0.20;;;;;;;19.42;69.37;100237.84;5145152;27;20110;-72
2022/07/01 03:51:29;;;;;;;0.20;0.20;;;;;;;19.42;69.80;100234.34;5144883;27;20394;-72
2022/07/01 03:56:38;;;;;;;0.20;0.20;;;;;;;19.50;70.94;100228.69;5145094;27;20052;-72
2022/07/01 03:59:03;;;;;;;0.20;0.20;;;;;;;19.90;70.98;100228.50;5144641;27;20019;-74
2022/07/01 04:01:29;;;;;;;0.43;0.43;;;;;;;20.29;69.86;100230.03;5144847;27;20030;-73
2022/07/01 04:03:55;;;;;;;0.10;0.10;;;;;;;20.66;69.16;100224.59;5144653;27;20034;-73
2022/07/01 04:06:20;;;;;;;0.20;0.20;;;;;;;20.98;68.04;100209.75;5145529;27;20023;-71
2022/07/01 04:08:47;;;;;;;0.20;0.20;;;;;;;21.20;67.21;100217.31;5145603;27;20033;-70
2022/07/01 04:11:13;;;;;;;0.20;0.20;;;;;;;21.40;66.52;100208.28;5145281;27;20030;-69
2022/07/01 04:13:39;;;;;;;0.20;0.20;;;;;;;21.60;66.03;100214.19;5145258;27;20019;-70
2022/07/01 04:16:05;;;;;;;0.20;0.20;;;;;;;21.86;65.67;100211.84;5145554;27;20019;-70
2022/07/01 04:18:31;;;;;;;0.25;0.25;;;;;;;22.12;65.44;100212.09;5145293;27;20502;-71
2022/07/01 04:23:42;;;;;;;0.10;0.10;;;;;;;22.94;63.22;100212.44;5145079;27;20519;-70
2022/07/01 04:26:07;;;;;;;0.20;0.20;;;;;;;23.17;62.40;100212.72;5144464;27;20031;-71
2022/07/01 04:28:33;;;;;;;0.40;0.40;;;;;;;23.30;61.67;100211.00;5145178;27;20023;-73
2022/07/01 04:30:59;;;;;;;0.15;0.15;;;;;;;23.44;61.14;100198.66;5145162;27;20026;-71
2022/07/01 04:33:24;;;;;;;0.40;0.40;;;;;;;23.64;61.60;100200.00;5145007;27;20088;-70
2022/07/01 04:35:50;;;;;;;1.27;1.17;;;;;;;23.92;59.63;100187.50;5145110;27;20032;-69
2022/07/01 04:38:15;;;;;;;0.10;0.10;;;;;;;23.93;59.71;100183.06;5126417;27;20484;-76
2022/07/01 04:41:58;;;;;;;0.30;0.30;;;;;;;24.07;59.37;100188.28;5144305;27;20040;-79
2022/07/01 04:43:26;;;;;;;0.20;0.20;;;;;;;24.08;59.09;100192.59;5144453;27;20027;-75
2022/07/01 04:45:51;;;;;;;0.15;0.15;;;;;;;24.12;59.38;100191.44;5126073;27;20030;-80
2022/07/01 04:48:16;;;;;;;0.10;0.10;;;;;;;24.41;58.87;100185.06;5145014;27;20041;-81
2022/07/01 04:50:42;;;;;;;0.20;0.20;;;;;;;24.74;58.37;100185.44;5144984;27;20023;-77
2022/07/01 04:53:07;;;;;;;0.68;0.68;;;;;;;25.25;58.17;100187.06;5144646;27;20090;-76
2022/07/01 04:55:32;;;;;;;0.10;0.10;;;;;;;25.81;57.41;100181.22;5144576;27;20027;-77
2022/07/01 04:57:58;;;;;;;0.10;0.10;;;;;;;26.40;55.60;100187.34;5144561;27;20098;-76
2022/07/01 05:00:23;;;;;;;0.20;0.20;;;;;;;26.89;56.46;100197.66;5144560;27;20479;-76
2022/07/01 05:02:49;;;;;;;0.20;0.20;;;;;;;27.65;55.85;100190.63;5144602;27;20060;-75
2022/07/01 05:05:14;;;;;;;0.20;0.20;;;;;;;28.32;54.04;100184.16;5126305;28;20507;-76
2022/07/01 05:07:40;;;;;;;0.10;0.10;;;;;;;28.81;52.98;100178.94;5126045;28;20030;-81
2022/07/01 05:10:06;;;;;;;1.88;1.00;;;;;;;29.05;50.19;100185.75;5144793;28;20372;-76
2022/07/01 05:12:31;;;;;;;0.10;0.10;;;;;;;28.99;50.54;100188.97;5143134;28;20015;-77
2022/07/01 05:14:57;;;;;;;0.43;0.43;;;;;;;29.11;49.35;100183.50;5144928;28;20030;-78
2022/07/01 05:21:55;;;;;;;0.10;0.10;;;;;;;29.20;50.13;100201.38;5144268;28;20023;-74
2022/07/01 05:22:53;;;;;;;0.10;0.10;;;;;;;30.57;48.65;100205.72;5144218;28;20034;-75
2022/07/01 05:25:18;;;;;;;0.10;0.10;;;;;;;30.88;47.25;100198.22;5142517;28;20043;-75
2022/07/01 05:27:44;;;;;;;0.10;0.10;;;;;;;31.29;46.64;100202.28;5143528;28;20030;-75
2022/07/01 05:30:10;;;;;;;0.10;0.10;;;;;;;31.81;45.80;100208.72;5143462;28;20053;-74
2022/07/01 05:32:35;;;;;;;0.00;0.00;;;;;;;32.11;45.17;100203.91;5142885;28;20015;-74
2022/07/01 05:35:00;;;;;;;0.10;0.10;;;;;;;32.40;45.14;100209.91;5143582;28;20027;-75
2022/07/01 05:37:26;;;;;;;0.10;0.10;;;;;;;32.89;42.90;100206.53;5125981;28;20058;-76
2022/07/01 05:39:51;;;;;;;0.10;0.10;;;;;;;32.81;42.74;100208.38;5127385;28;20106;-76
2022/07/01 05:42:16;;;;;;;0.10;0.10;;;;;;;32.74;42.45;100219.78;5127218;28;20454;-76
2022/07/01 05:44:42;;;;;;;0.10;0.10;;;;;;;32.84;40.69;100222.34;5127298;28;20019;-77
2022/07/01 05:47:08;;;;;;;0.13;0.13;;;;;;;32.80;40.08;100229.03;5127770;28;20172;-77
2022/07/01 05:49:33;;;;;;;0.10;0.10;;;;;;;32.69;40.30;100234.72;5127491;28;20020;-75
2022/07/01 05:51:59;;;;;;;0.15;0.15;;;;;;;32.65;39.65;100235.03;5127611;28;20028;-77
2022/07/01 05:54:24;;;;;;;0.77;0.77;;;;;;;32.33;38.95;100241.09;5127337;28;20030;-78
2022/07/01 05:56:49;;;;;;;0.00;0.00;;;;;;;32.42;38.58;100252.72;5127509;28;20048;-77
2022/07/01 05:59:15;;;;;;;0.22;0.22;;;;;;;32.40;37.80;100251.03;5127176;28;20023;-76
2022/07/01 06:01:40;;;;;;;0.10;0.10;;;;;;;32.29;37.54;100245.94;5127877;28;20024;-76
2022/07/01 06:04:05;;;;;;;0.10;0.10;;;;;;;32.31;37.14;100246.63;5127472;28;20019;-77
2022/07/01 06:06:31;;;;;;;0.10;0.10;;;;;;;32.19;37.89;100253.28;5127347;28;20475;-75
2022/07/01 06:08:56;;;;;;;0.10;0.10;;;;;;;32.24;36.80;100245.56;5127007;28;20026;-76
2022/07/01 06:11:22;;;;;;;0.10;0.10;;;;;;;31.74;33.95;100245.25;5126956;28;20099;-76
2022/07/01 06:13:47;;;;;;;0.55;0.40;;;;;;;31.36;34.75;100240.88;5126904;28;20030;-77
2022/07/01 06:16:12;;;;;;;0.20;0.20;;;;;;;31.33;35.48;100243.88;5127170;28;20432;-78
2022/07/01 06:18:38;;;;;;;0.05;0.05;;;;;;;31.51;34.91;100235.00;5127221;28;20020;-77
2022/07/01 06:21:03;;;;;;;0.10;0.10;;;;;;;31.31;33.88;100228.94;5127419;28;20030;-76
2022/07/01 06:23:28;;;;;;;0.10;0.10;;;;;;;31.50;34.05;100231.47;5126610;28;20061;-76
2022/07/01 06:25:54;;;;;;;0.10;0.10;;;;;;;31.74;34.12;100235.34;5126917;28;20019;-76
2022/07/01 06:28:19;;;;;;;0.10;0.10;;;;;;;31.90;34.02;100234.63;5127023;28;20047;-79
2022/07/01 06:30:45;;;;;;;0.63;0.63;;;;;;;31.95;32.76;100225.28;5127105;28;20029;-78
2022/07/01 06:33:12;;;;;;;0.10;0.10;;;;;;;31.69;31.75;100226.09;5126998;28;20096;-78
2022/07/01 06:35:38;;;;;;;0.10;0.10;;;;;;;31.68;32.78;100229.78;5126997;28;20019;-78
2022/07/01 06:38:03;;;;;;;0.00;0.00;;;;;;;31.77;32.03;100236.88;5126828;28;20028;-78
2022/07/01 06:40:28;;;;;;;0.10;0.10;;;;;;;31.79;31.85;100242.94;5126639;28;20426;-78
2022/07/01 06:42:55;;;;;;;0.10;0.10;;;;;;;31.69;32.01;100242.19;5126654;28;20111;-77
2022/07/01 06:45:20;;;;;;;0.10;0.10;;;;;;;31.51;32.63;100240.38;5126399;28;20031;-76
2022/07/01 06:47:46;;;;;;;0.10;0.10;;;;;;;31.72;33.00;100236.50;5126363;28;20460;-77
2022/07/01 06:50:11;;;;;;;0.10;0.10;;;;;;;31.83;32.70;100232.72;5126323;28;20030;-78
2022/07/01 06:52:37;;;;;;;0.10;0.10;;;;;;;32.01;32.45;100243.44;5126296;28;20027;-78
2022/07/01 06:55:02;;;;;;;0.10;0.10;;;;;;;32.30;32.71;100234.22;5126921;28;20031;-80
2022/07/01 06:57:29;;;;;;;0.10;0.10;;;;;;;32.43;30.99;100230.25;5126443;28;20020;-78
2022/07/01 06:59:54;;;;;;;0.10;0.10;;;;;;;32.48;31.39;100233.25;5126313;28;20024;-79
2022/07/01 07:02:20;;;;;;;0.10;0.10;;;;;;;32.44;31.76;100226.53;5126300;28;20030;-78
2022/07/01 07:04:46;;;;;;;0.10;0.10;;;;;;;32.20;30.52;100228.09;5126290;28;20050;-75
2022/07/01 07:07:11;;;;;;;0.73;0.73;;;;;;;32.08;30.81;100239.13;5126234;28;20011;-75
2022/07/01 07:09:36;;;;;;;0.35;0.35;;;;;;;31.84;30.57;100234.44;5107683;28;20051;-77
2022/07/01 07:12:02;;;;;;;0.00;0.00;;;;;;;31.93;31.02;100246.03;5126391;28;20030;-77
2022/07/01 07:14:27;;;;;;;0.10;0.10;;;;;;;31.89;30.35;100246.34;5126293;28;20027;-75
2022/07/01 07:16:54;;;;;;;0.13;0.13;;;;;;;31.77;30.35;100231.53;5126279;28;20020;-75
2022/07/01 07:19:19;;;;;;;0.10;0.10;;;;;;;31.45;31.06;100233.78;5126221;28;20011;-79
2022/07/01 07:21:45;;;;;;;0.10;0.10;;;;;;;31.64;31.18;100230.09;5126287;28;20448;-78
2022/07/01 07:24:10;;;;;;;0.10;0.10;;;;;;;32.00;31.43;100228.31;5125753;28;20048;-78
2022/07/01 07:26:36;;;;;;;0.10;0.10;;;;;;;31.90;30.12;100229.25;5125711;28;20024;-75
2022/07/01 07:29:01;;;;;;;0.10;0.10;;;;;;;31.91;30.93;100238.16;5125173;28;20024;-78
2022/07/01 07:31:26;;;;;;;0.10;0.10;;;;;;;32.05;31.05;100234.06;5124832;28;20023;-78
2022/07/01 07:33:52;;;;;;;0.50;0.50;;;;;;;32.22;31.07;100243.03;5125354;28;20116;-78
2022/07/01 07:36:17;;;;;;;0.10;0.10;;;;;;;32.56;30.74;100219.91;5125934;28;20051;-76
2022/07/01 07:38:42;;;;;;;0.10;0.10;;;;;;;32.95;29.49;100220.34;5125271;28;20080;-81
2022/07/01 07:41:08;;;;;;;0.10;0.10;;;;;;;32.92;29.25;100226.91;5107330;28;20016;-79
2022/07/01 07:43:33;;;;;;;0.10;0.10;;;;;;;33.18;29.98;100222.44;5107152;28;20025;-76
2022/07/01 07:45:58;;;;;;;0.00;0.00;;;;;;;33.41;29.95;100224.44;5125439;28;20087;-81
2022/07/01 07:48:24;;;;;;;0.00;0.00;;;;;;;33.77;29.38;100229.50;5107160;28;20072;-79
2022/07/01 07:50:49;;;;;;;0.10;0.10;;;;;;;34.10;29.34;100236.66;5125381;28;20087;-76
2022/07/01 07:53:15;;;;;;;0.10;0.10;;;;;;;34.48;29.30;100236.03;5125135;28;20020;-76
2022/07/01 07:55:40;;;;;;;0.10;0.10;;;;;;;34.40;28.89;100239.59;5124913;28;20019;-78
2022/07/01 07:58:06;;;;;;;0.10;0.10;;;;;;;34.26;29.62;100243.88;5125052;28;20104;-76
2022/07/01 08:00:32;;;;;;;0.08;0.08;;;;;;;34.32;29.14;100240.47;5124163;28;20020;-80
2022/07/01 08:02:57;;;;;;;0.03;0.03;;;;;;;34.57;29.81;100234.97;5125011;28;20122;-79
2022/07/01 08:05:23;;;;;;;0.10;0.10;;;;;;;34.73;29.30;100250.25;5125048;28;20019;-76
2022/07/01 08:07:48;;;;;;;0.10;0.10;;;;;;;34.52;29.23;100247.31;5125133;28;20023;-79
2022/07/01 08:10:14;;;;;;;0.10;0.10;;;;;;;34.46;29.98;100244.28;5124835;28;20095;-80
2022/07/01 08:12:40;;;;;;;0.10;0.10;;;;;;;34.62;29.75;100232.59;5124725;28;20042;-76
2022/07/01 08:15:06;;;;;;;0.03;0.03;;;;;;;34.73;29.56;100235.97;5124756;28;20489;-78
2022/07/01 08:17:32;;;;;;;0.10;0.10;;;;;;;34.69;29.72;100226.53;5103462;28;20076;-80
2022/07/01 08:19:57;;;;;;;0.05;0.05;;;;;;;34.79;29.36;100242.50;5124653;28;20031;-76
2022/07/01 08:22:23;;;;;;;0.10;0.10;;;;;;;34.58;29.43;100231.28;5124462;28;20065;-79
2022/07/01 08:24:48;;;;;;;0.05;0.05;;;;;;;34.60;29.81;100236.50;5124305;28;20054;-79
2022/07/01 08:27:14;;;;;;;0.10;0.10;;;;;;;34.73;29.66;100236.78;5106219;28;20034;-76
2022/07/01 08:29:40;;;;;;;0.20;0.20;;;;;;;34.72;30.00;100242.34;5124813;28;20049;-78
2022/07/01 08:32:06;;;;;;;0.00;0.00;;;;;;;34.82;30.15;100225.97;5124735;28;20042;-78
2022/07/01 08:34:32;;;;;;;0.10;0.10;;;;;;;35.19;30.15;100221.66;5124237;28;20047;-78
2022/07/01 08:36:57;;;;;;;0.20;0.20;;;;;;;35.48;29.45;100230.06;5124366;28;20027;-82
2022/07/01 08:39:23;;;;;;;0.00;0.00;;;;;;;35.28;28.92;100227.84;5124331;28;20023;-78
2022/07/01 08:41:48;;;;;;;7.78;1.75;;;;;;;35.26;29.08;100221.78;5124350;28;20462;-76
2022/07/01 08:44:13;;;;;;;0.28;0.28;;;;;;;35.37;28.55;100233.19;5124147;28;20020;-79
2022/07/01 08:46:39;;;;;;;0.10;0.10;;;;;;;35.18;28.89;100236.16;5124050;28;20033;-78
2022/07/01 08:49:06;;;;;;;0.10;0.10;;;;;;;34.92;29.16;100248.13;5124173;28;20023;-74
2022/07/01 08:51:31;;;;;;;0.00;0.00;;;;;;;34.75;29.50;100247.38;5124092;28;20089;-80
2022/07/01 08:53:57;;;;;;;0.47;0.47;;;;;;;35.18;29.90;100244.25;5105523;28;20024;-80
2022/07/01 08:56:40;;;;;;;1.38;1.20;;;;;;;35.26;28.44;100243.38;5124020;28;20039;-77
2022/07/01 08:59:06;;;;;;;0.10;0.10;;;;;;;35.17;28.52;100256.06;5124255;28;20015;-81
2022/07/01 09:01:33;;;;;;;0.10;0.10;;;;;;;35.04;28.69;100261.19;5124126;28;20027;-80
2022/07/01 09:04:13;;;;;;;0.10;0.10;;;;;;;34.71;28.58;100257.69;5124109;28;20517;-77
2022/07/01 09:06:38;;;;;;;1.05;1.00;;;;;;;34.68;29.12;100246.41;5123831;28;20036;-80
2022/07/01 09:09:15;;;;;;;0.10;0.10;;;;;;;34.98;28.82;100265.47;5105610;28;20027;-77
2022/07/01 09:11:46;;;;;;;0.05;0.05;;;;;;;35.06;29.13;100267.25;5123314;28;20023;-78
2022/07/01 09:14:12;;;;;;;;;;;;;;;35.11;29.01;100276.50;5124278;28;20048;-76
2022/07/01 09:16:53;;;;;;;0.10;0.10;;;;;;;35.21;28.73;100278.16;5123920;28;20007;-80
2022/07/01 09:19:20;;;;;;;0.10;0.10;;;;;;;35.00;29.37;100282.31;5124028;28;20055;-79
2022/07/01 09:21:56;;;;;;;0.10;0.10;;;;;;;34.98;29.16;100284.34;5105582;28;20095;-76
2022/07/01 09:24:42;;;;;;;0.10;0.10;;;;;;;34.92;29.46;100280.47;5105102;28;20263;-80
2022/07/01 09:27:18;;;;;;;0.03;0.03;;;;;;;35.11;28.91;100276.50;5123984;28;20027;-76
2022/07/01 09:29:51;;;;;;;0.30;0.30;;;;;;;35.18;28.99;100278.50;5123970;28;20044;-80
2022/07/01 09:32:20;;;;;;;0.10;0.10;;;;;;;35.34;29.27;100275.69;5124020;28;20045;-80
2022/07/01 09:34:51;;;;;;;0.10;0.10;;;;;;;35.58;29.23;100272.97;5123725;28;20035;-80
2022/07/01 09:37:20;;;;;;;0.10;0.10;;;;;;;35.28;28.63;100279.13;5123960;28;20019;-79
2022/07/01 09:39:49;;;;;;;0.00;0.00;;;;;;;34.78;29.33;100276.69;5123611;28;20036;-79
2022/07/01 09:42:17;;;;;;;0.20;0.20;;;;;;;34.49;29.79;100278.16;5123922;28;20024;-78
2022/07/01 09:45:06;;;;;;;0.00;0.00;;;;;;;34.37;29.73;100283.06;5105280;28;20032;-79
2022/07/01 09:47:33;;;;;;;0.20;0.20;;;;;;;34.12;29.80;100283.94;5123851;28;20046;-78
2022/07/01 09:50:00;;;;;;;0.00;0.00;;;;;;;33.89;29.74;100273.03;5124003;28;20024;-79
2022/07/01 09:52:26;;;;;;;0.10;0.10;;;;;;;33.74;29.50;100283.69;5123860;28;20028;-78
2022/07/01 09:54:52;;;;;;;0.00;0.00;;;;;;;33.70;29.55;100293.06;5123613;28;20035;-77
2022/07/01 09:57:18;;;;;;;0.03;0.03;;;;;;;33.33;29.92;100282.59;5123923;28;20259;-79
2022/07/01 09:59:44;;;;;;;0.00;0.00;;;;;;;32.94;30.77;100286.69;5105414;28;20098;-76
2022/07/01 10:02:10;;;;;;;0.00;0.00;;;;;;;32.61;31.54;100292.81;5105384;28;20019;-79
2022/07/01 10:04:38;;;;;;;0.10;0.10;;;;;;;32.65;31.72;100286.09;5123608;28;20047;-79
2022/07/01 10:07:28;;;;;;;0.10;0.10;;;;;;;32.96;31.49;100283.84;5123731;28;20019;-77
2022/07/01 10:10:04;;;;;;;0.17;0.17;;;;;;;33.36;30.63;100282.28;5105001;28;20037;-77
2022/07/01 10:12:33;;;;;;;0.40;0.40;;;;;;;33.20;29.86;100280.41;5123485;28;20019;-79
2022/07/01 10:15:00;;;;;;;0.10;0.10;;;;;;;32.97;30.28;100280.16;5123730;28;20016;-80
2022/07/01 10:17:32;;;;;;;0.70;0.50;;;;;;;32.69;30.68;100283.06;5123470;28;20031;-76
2022/07/01 10:20:08;;;;;;;0.22;0.22;;;;;;;32.35;31.29;100280.22;5123507;28;20020;-81
2022/07/01 10:22:36;;;;;;;0.10;0.10;;;;;;;32.44;31.57;100282.94;5123601;28;20023;-80
2022/07/01 10:25:31;;;;;;;0.20;0.20;;;;;;;32.83;31.03;100269.03;5126045;28;20043;-83
2022/07/01 10:28:19;;;;;;;0.10;0.10;;;;;;;33.00;30.76;100269.09;5117581;28;20491;-77
2022/07/01 10:31:05;;;;;;;0.10;0.10;;;;;;;33.21;30.05;100265.94;5126918;28;20463;-76
2022/07/01 10:33:40;;;;;;;0.10;0.10;;;;;;;33.41;29.29;100267.47;5126857;28;20266;-77
2022/07/01 10:36:08;;;;;;;0.10;0.10;;;;;;;33.33;29.81;100260.25;5127235;28;20020;-78
2022/07/01 10:38:33;;;;;;;0.20;0.20;;;;;;;33.35;28.88;100261.78;5127099;28;20031;-78
2022/07/01 10:41:09;;;;;;;0.10;0.10;;;;;;;33.19;29.34;100257.22;5108091;28;20019;-80
2022/07/01 10:43:37;;;;;;;1.65;0.90;;;;;;;33.13;29.27;100268.63;5128590;28;20023;-77
2022/07/01 10:46:03;;;;;;;0.50;0.50;;;;;;;32.78;29.82;100263.31;5127762;28;20023;-79
2022/07/01 10:48:32;;;;;;;0.20;0.20;;;;;;;32.45;30.68;100263.97;5108008;28;20058;-79
2022/07/01 10:50:57;;;;;;;0.00;0.00;;;;;;;32.34;31.16;100261.56;5126483;28;20416;-79
2022/07/01 10:53:23;;;;;;;0.20;0.20;;;;;;;32.13;31.29;100266.34;5126492;28;20043;-79
2022/07/01 10:55:53;;;;;;;0.10;0.10;;;;;;;32.10;31.64;100269.34;5126422;28;20035;-77
2022/07/01 10:58:35;;;;;;;0.28;0.28;;;;;;;31.86;31.73;100254.72;5107774;28;20053;-79
2022/07/01 11:01:00;;;;;;;0.00;0.00;;;;;;;31.82;32.24;100266.78;5126422;28;20051;-76
2022/07/01 11:03:26;;;;;;;0.10;0.10;;;;;;;31.43;32.55;100262.59;5126059;28;20100;-78
2022/07/01 11:05:53;;;;;;;0.10;0.10;;;;;;;30.67;33.73;100254.72;5126156;28;20020;-78
2022/07/01 11:08:19;;;;;;;0.10;0.10;;;;;;;30.12;34.82;100267.88;5125989;28;20020;-78
2022/07/01 11:10:50;;;;;;;0.10;0.10;;;;;;;29.53;35.69;100251.88;5126041;28;20019;-76
2022/07/01 11:13:15;;;;;;;0.77;0.52;;;;;;;29.09;36.27;100260.28;5125790;28;20485;-76
2022/07/01 11:15:41;;;;;;;0.10;0.10;;;;;;;28.87;36.89;100259.50;5125822;28;20038;-77
2022/07/01 11:18:07;;;;;;;0.10;0.10;;;;;;;28.55;37.60;100253.34;5125716;28;20039;-77
2022/07/01 11:20:32;;;;;;;0.10;0.10;;;;;;;28.20;38.60;100250.91;5125560;28;20028;-77
2022/07/01 11:22:59;;;;;;;0.10;0.10;;;;;;;27.86;39.34;100247.63;5125641;28;20088;-75
2022/07/01 11:25:26;;;;;;;0.10;0.10;;;;;;;27.68;39.51;100257.06;5125081;28;20054;-76
2022/07/01 11:27:52;;;;;;;0.10;0.10;;;;;;;27.32;40.45;100256.44;5106447;28;20083;-77
2022/07/01 11:30:19;;;;;;;0.10;0.10;;;;;;;27.16;40.75;100260.34;5124624;28;20024;-77